Time;durP1;ratioP1;P1;durP2;ratioP2;P2;SDS_P1;SDS_P2;PMS_P1;PMS_P2;Temp;Humidity;BMP_temperature;BMP_pressure;BME280_temperature;BME280_humidity;BME280_pressure;Samples;Min_cycle;Max_cycle;Signal;HPM_P1;HPM_P2
2021/05/26 00:01:25;;;;;;;5.57;4.68;;;16.80;95.30;;;;;;4940852;29;20035;-77
2021/05/26 00:03:52;;;;;;;6.57;5.47;;;16.80;95.30;;;;;;4958070;29;20035;-76
2021/05/26 00:06:18;;;;;;;5.82;4.93;;;16.80;95.30;;;;;;4940848;29;20528;-76
2021/05/26 00:08:44;;;;;;;5.75;5.15;;;16.80;95.30;;;;;;4956959;29;20491;-76
2021/05/26 00:11:14;;;;;;;6.10;5.13;;;16.80;95.30;;;;;;4958205;29;20462;-77
2021/05/26 00:13:42;;;;;;;9.45;5.32;;;16.80;95.40;;;;;;4958054;29;20055;-77
2021/05/26 00:16:09;;;;;;;6.53;4.90;;;16.70;95.30;;;;;;4941211;29;20033;-77
2021/05/26 00:18:35;;;;;;;5.82;4.90;;;16.70;95.40;;;;;;4940643;29;20102;-77
2021/05/26 00:21:05;;;;;;;7.03;5.10;;;16.70;95.40;;;;;;4958030;28;20024;-77
2021/05/26 00:23:31;;;;;;;5.57;5.03;;;16.70;95.30;;;;;;4957878;29;20027;-76
2021/05/26 00:25:58;;;;;;;5.57;5.00;;;16.60;95.40;;;;;;4940443;29;20035;-77
2021/05/26 00:28:23;;;;;;;5.32;4.82;;;16.60;95.40;;;;;;4957620;29;20028;-76
2021/05/26 00:30:51;;;;;;;5.47;4.95;;;16.60;95.50;;;;;;4940387;29;20385;-76
2021/05/26 00:33:20;;;;;;;5.50;4.90;;;16.60;95.50;;;;;;4956627;29;20031;-77
2021/05/26 00:35:47;;;;;;;5.70;5.20;;;16.60;95.50;;;;;;4957871;29;20019;-76
2021/05/26 00:38:13;;;;;;;6.18;5.55;;;16.60;95.60;;;;;;4957908;29;20051;-77
2021/05/26 00:40:40;;;;;;;7.25;5.78;;;16.50;95.60;;;;;;4940775;29;20030;-76
2021/05/26 00:43:06;;;;;;;6.63;6.00;;;16.50;95.60;;;;;;4957456;29;20466;-77
2021/05/26 00:45:32;;;;;;;9.48;8.00;;;16.40;95.70;;;;;;4957836;29;20042;-76
2021/05/26 00:47:59;;;;;;;10.25;8.27;;;16.40;95.70;;;;;;4940241;29;20030;-76
2021/05/26 00:50:28;;;;;;;9.13;8.02;;;16.40;95.70;;;;;;4956558;29;20059;-76
2021/05/26 00:52:58;;;;;;;9.65;8.02;;;16.40;95.80;;;;;;4957769;29;20023;-76
2021/05/26 00:55:24;;;;;;;8.48;7.57;;;16.40;95.80;;;;;;4939361;29;20086;-77
2021/05/26 00:57:51;;;;;;;9.38;8.48;;;16.30;95.80;;;;;;4957305;29;20031;-76
2021/05/26 01:00:19;;;;;;;8.75;7.32;;;16.30;95.80;;;;;;4957153;29;20058;-77
2021/05/26 01:02:46;;;;;;;8.63;7.75;;;16.30;95.90;;;;;;4955888;29;20473;-77
2021/05/26 01:05:13;;;;;;;8.60;7.72;;;16.20;95.90;;;;;;4924500;29;20040;-77
2021/05/26 01:07:40;;;;;;;9.35;7.88;;;16.20;95.90;;;;;;4939604;29;20086;-77
2021/05/26 01:10:12;;;;;;;8.32;7.45;;;16.10;96.00;;;;;;4940071;29;20095;-76
2021/05/26 01:12:38;;;;;;;8.77;7.07;;;16.10;96.00;;;;;;4953603;29;20063;-77
2021/05/26 01:15:06;;;;;;;7.10;6.40;;;16.10;96.00;;;;;;4939688;29;20485;-77
2021/05/26 01:17:34;;;;;;;8.68;7.30;;;16.10;96.10;;;;;;4939648;29;20059;-77
2021/05/26 01:20:07;;;;;;;9.73;7.25;;;16.00;96.10;;;;;;4955365;29;20077;-77
2021/05/26 01:22:34;;;;;;;8.57;7.07;;;16.00;96.00;;;;;;4956376;29;20128;-77
2021/05/26 01:24:59;;;;;;;9.93;7.50;;;15.90;96.10;;;;;;4956399;29;20035;-76
2021/05/26 01:27:25;;;;;;;8.00;6.50;;;15.90;96.10;;;;;;4939621;29;20027;-77
2021/05/26 01:29:52;;;;;;;12.23;6.88;;;15.90;96.20;;;;;;4939594;29;20031;-77
2021/05/26 01:32:17;;;;;;;8.70;7.43;;;15.90;96.20;;;;;;4923358;29;20035;-77
2021/05/26 01:34:43;;;;;;;7.30;6.60;;;15.90;96.20;;;;;;4956540;29;20177;-77
2021/05/26 01:37:09;;;;;;;7.90;6.60;;;15.90;96.20;;;;;;4955989;29;20031;-76
2021/05/26 01:39:35;;;;;;;8.20;7.38;;;15.90;96.20;;;;;;4956081;29;20023;-77
2021/05/26 01:42:00;;;;;;;9.93;7.32;;;15.80;96.20;;;;;;4955815;29;20038;-77
2021/05/26 01:44:27;;;;;;;7.75;6.90;;;15.80;96.30;;;;;;4955799;29;20031;-77
2021/05/26 01:46:54;;;;;;;8.65;6.93;;;15.80;96.40;;;;;;4956360;29;20032;-77
2021/05/26 01:49:20;;;;;;;11.20;7.15;;;15.80;96.30;;;;;;4956235;29;20046;-77
2021/05/26 01:51:45;;;;;;;8.20;7.15;;;15.80;96.30;;;;;;4938467;29;20069;-77
2021/05/26 01:54:11;;;;;;;9.25;6.93;;;15.80;96.40;;;;;;4956078;29;20031;-77
2021/05/26 01:56:37;;;;;;;10.55;7.65;;;15.70;96.40;;;;;;4956005;29;20028;-77
2021/05/26 01:59:03;;;;;;;9.35;7.65;;;15.70;96.40;;;;;;4938826;29;20117;-76
2021/05/26 02:01:29;;;;;;;9.65;7.30;;;15.70;96.40;;;;;;4938809;29;20058;-77
2021/05/26 02:03:56;;;;;;;8.73;7.38;;;15.70;96.40;;;;;;4956226;29;20035;-77
2021/05/26 02:06:25;;;;;;;9.77;7.40;;;15.70;96.40;;;;;;4955270;28;20062;-77
2021/05/26 02:08:53;;;;;;;9.80;7.82;;;15.70;96.40;;;;;;4938242;29;20031;-77
2021/05/26 02:14:08;;;;;;;9.23;7.30;;;15.60;96.40;;;;;;4936584;29;20409;-76
2021/05/26 02:16:35;;;;;;;10.80;7.25;;;15.60;96.50;;;;;;4936536;29;20032;-77
2021/05/26 02:19:01;;;;;;;8.18;6.95;;;15.60;96.40;;;;;;4919312;29;20458;-77
2021/05/26 02:21:27;;;;;;;8.15;6.72;;;15.60;96.50;;;;;;4936476;29;20027;-77
2021/05/26 02:23:53;;;;;;;8.02;7.00;;;15.60;96.60;;;;;;4919133;29;20031;-77
2021/05/26 02:26:19;;;;;;;10.48;7.18;;;15.60;96.60;;;;;;4919678;29;20122;-77
2021/05/26 02:28:45;;;;;;;8.00;6.90;;;15.60;96.60;;;;;;4936875;29;20070;-77
2021/05/26 02:31:10;;;;;;;9.45;6.60;;;15.60;96.70;;;;;;4936275;29;20036;-77
2021/05/26 02:33:37;;;;;;;8.70;6.95;;;15.60;96.70;;;;;;4919474;29;20031;-77
2021/05/26 02:36:05;;;;;;;8.63;7.25;;;15.60;96.70;;;;;;4936215;29;20035;-77
2021/05/26 02:38:32;;;;;;;7.22;6.53;;;15.70;96.70;;;;;;4919724;29;20055;-77
2021/05/26 02:40:58;;;;;;;8.80;6.95;;;15.60;96.70;;;;;;4936430;29;20055;-77
2021/05/26 02:43:25;;;;;;;7.95;6.50;;;15.70;96.70;;;;;;4935140;29;20128;-76
2021/05/26 02:45:51;;;;;;;7.30;6.40;;;15.70;96.70;;;;;;4936458;29;20028;-77
2021/05/26 02:48:18;;;;;;;8.43;6.35;;;15.70;96.80;;;;;;4936485;29;20031;-77
2021/05/26 02:50:46;;;;;;;7.10;6.40;;;15.70;96.80;;;;;;4918582;29;20387;-77
2021/05/26 02:53:12;;;;;;;6.60;5.72;;;15.70;96.80;;;;;;4919645;29;20042;-77
2021/05/26 02:55:38;;;;;;;8.45;6.13;;;15.80;96.90;;;;;;4919145;29;20019;-77
2021/05/26 02:58:04;;;;;;;7.53;6.00;;;15.80;97.00;;;;;;4935204;29;20114;-76
2021/05/26 03:00:29;;;;;;;7.38;6.45;;;15.80;97.00;;;;;;4935633;29;20035;-77
2021/05/26 03:02:55;;;;;;;7.57;6.22;;;15.90;97.00;;;;;;4919172;29;20019;-77
2021/05/26 03:05:21;;;;;;;7.38;6.03;;;15.90;97.00;;;;;;4935910;29;20083;-77
2021/05/26 03:07:47;;;;;;;6.47;5.10;;;15.90;97.10;;;;;;4936089;29;20036;-77
2021/05/26 03:10:17;;;;;;;6.13;5.32;;;15.90;97.10;;;;;;4935286;29;20347;-77
2021/05/26 03:12:42;;;;;;;7.63;5.57;;;16.00;97.20;;;;;;4945230;28;20557;-76
2021/05/26 03:15:11;;;;;;;7.10;5.05;;;16.00;97.20;;;;;;4954903;29;20031;-77
2021/05/26 03:17:37;;;;;;;5.70;5.20;;;16.00;97.30;;;;;;4954227;28;20477;-76
2021/05/26 03:20:10;;;;;;;6.22;5.32;;;16.10;97.30;;;;;;4958100;28;20102;-77
2021/05/26 03:22:36;;;;;;;5.30;4.80;;;16.10;97.30;;;;;;4958334;29;20031;-77
2021/05/26 03:25:02;;;;;;;5.57;4.95;;;16.10;97.40;;;;;;4957277;29;20163;-76
2021/05/26 03:27:34;;;;;;;5.60;4.65;;;16.20;97.40;;;;;;4958474;29;20027;-77
2021/05/26 03:30:02;;;;;;;9.80;5.03;;;16.20;97.30;;;;;;4959002;29;20159;-77
2021/05/26 03:32:28;;;;;;;5.75;5.07;;;16.30;97.30;;;;;;4958393;29;20042;-77
2021/05/26 03:34:54;;;;;;;4.50;4.10;;;16.30;97.30;;;;;;4941203;29;20122;-76
2021/05/26 03:37:20;;;;;;;5.93;5.05;;;16.40;97.30;;;;;;4958711;29;20028;-77
2021/05/26 03:39:46;;;;;;;5.40;4.90;;;16.40;97.30;;;;;;4958734;29;20488;-77
2021/05/26 03:42:12;;;;;;;6.10;5.15;;;16.50;97.30;;;;;;4941108;29;20122;-77
2021/05/26 03:44:37;;;;;;;5.32;4.70;;;16.50;97.20;;;;;;4941480;29;20023;-77
2021/05/26 03:47:03;;;;;;;5.35;4.50;;;16.60;97.30;;;;;;4958484;29;20031;-76
2021/05/26 03:49:29;;;;;;;7.85;5.45;;;16.60;97.20;;;;;;4958267;29;20023;-77
2021/05/26 03:51:54;;;;;;;5.93;5.00;;;16.70;97.20;;;;;;4958066;29;20381;-77
2021/05/26 03:54:20;;;;;;;5.93;5.07;;;16.70;97.20;;;;;;4958173;29;20027;-77
2021/05/26 03:56:45;;;;;;;5.43;4.88;;;16.70;97.30;;;;;;4958136;29;20402;-77
2021/05/26 03:59:11;;;;;;;6.45;5.00;;;16.80;97.30;;;;;;4958030;28;20418;-77
2021/05/26 04:01:38;;;;;;;8.75;5.35;;;16.80;97.10;;;;;;4956651;29;20035;-77
2021/05/26 04:04:04;;;;;;;7.57;5.47;;;16.80;97.20;;;;;;4957885;29;20032;-87
2021/05/26 04:06:32;;;;;;;9.82;8.07;;;16.80;97.10;;;;;;4957350;29;20023;-87
2021/05/26 04:08:57;;;;;;;9.05;7.05;;;16.90;97.10;;;;;;4958269;29;20054;-82
2021/05/26 04:11:24;;;;;;;8.75;6.25;;;17.00;97.00;;;;;;4958397;29;20794;-82
2021/05/26 04:13:50;;;;;;;7.85;6.10;;;17.00;97.00;;;;;;4940628;29;20489;-82
2021/05/26 04:16:15;;;;;;;7.93;6.22;;;17.10;97.00;;;;;;4940863;29;20050;-82
2021/05/26 04:18:41;;;;;;;7.28;6.05;;;17.20;96.90;;;;;;4958139;29;20106;-82
2021/05/26 04:21:07;;;;;;;7.20;5.90;;;17.20;96.90;;;;;;4957741;29;20098;-83
2021/05/26 04:23:32;;;;;;;8.18;6.07;;;17.30;96.90;;;;;;4957757;29;20032;-82
2021/05/26 04:25:58;;;;;;;7.45;6.05;;;17.30;96.80;;;;;;4940584;29;20087;-82
2021/05/26 04:28:24;;;;;;;7.05;5.53;;;17.40;96.70;;;;;;4956356;29;20039;-82
2021/05/26 04:30:50;;;;;;;6.95;5.40;;;17.40;96.60;;;;;;4939974;29;20028;-81
2021/05/26 04:33:16;;;;;;;16.17;12.77;;;17.50;96.60;;;;;;4957135;29;20042;-89
2021/05/26 04:35:43;;;;;;;11.43;8.73;;;17.60;96.70;;;;;;4957966;29;20042;-82
2021/05/26 04:38:09;;;;;;;12.80;8.85;;;17.60;96.70;;;;;;4940077;29;20433;-82
2021/05/26 04:40:35;;;;;;;11.80;8.20;;;17.70;96.70;;;;;;4940196;29;20035;-82
2021/05/26 04:43:00;;;;;;;11.40;8.10;;;17.70;96.50;;;;;;4957261;29;20046;-83
2021/05/26 04:45:26;;;;;;;8.55;6.75;;;17.80;96.50;;;;;;4957110;29;20035;-83
2021/05/26 04:47:52;;;;;;;8.57;6.80;;;17.80;96.50;;;;;;4957436;29;20437;-84
2021/05/26 04:50:18;;;;;;;9.25;6.80;;;17.90;96.50;;;;;;4939728;29;20461;-83
2021/05/26 04:52:43;;;;;;;8.93;6.13;;;17.90;96.70;;;;;;4956329;29;20532;-86
2021/05/26 04:55:10;;;;;;;9.10;6.45;;;18.00;96.20;;;;;;4956165;28;20110;-85
2021/05/26 04:57:36;;;;;;;6.68;5.57;;;18.00;96.10;;;;;;4957615;29;20023;-89
2021/05/26 05:00:06;;;;;;;7.72;6.00;;;18.20;96.00;;;;;;4956302;29;20478;-86
2021/05/26 05:02:32;;;;;;;8.93;5.53;;;18.20;95.70;;;;;;4957124;29;20109;-85
2021/05/26 05:04:57;;;;;;;11.85;9.98;;;18.20;95.80;;;;;;4957295;29;20050;-89
2021/05/26 05:07:23;;;;;;;12.57;8.50;;;18.30;95.70;;;;;;4940803;29;20031;-87
2021/05/26 05:09:49;;;;;;;8.95;7.25;;;18.40;95.60;;;;;;4955876;29;20027;-85
2021/05/26 05:12:14;;;;;;;7.20;5.38;;;18.40;95.60;;;;;;4956133;29;20047;-90
2021/05/26 05:14:40;;;;;;;7.07;5.00;;;18.50;95.40;;;;;;4957386;29;20032;-90
2021/05/26 05:17:06;;;;;;;4.72;4.18;;;18.60;95.10;;;;;;4940174;29;20051;-90
2021/05/26 05:19:31;;;;;;;5.93;3.88;;;18.60;94.80;;;;;;4956329;29;20027;-89
2021/05/26 05:21:57;;;;;;;7.45;4.10;;;18.70;94.50;;;;;;4939915;29;20074;-88
2021/05/26 05:24:23;;;;;;;6.25;4.47;;;18.70;94.60;;;;;;4925947;29;20394;-91
2021/05/26 05:26:48;;;;;;;8.02;5.30;;;18.80;94.60;;;;;;4917619;29;20088;-90
2021/05/26 05:29:14;;;;;;;6.88;5.68;;;18.80;94.40;;;;;;4917765;29;20067;-88
2021/05/26 05:31:39;;;;;;;6.25;5.40;;;18.90;94.30;;;;;;4918081;29;20032;-92
2021/05/26 05:34:05;;;;;;;5.63;4.95;;;19.00;94.20;;;;;;4917581;29;20056;-91
2021/05/26 05:36:31;;;;;;;5.82;5.20;;;19.00;93.90;;;;;;4902075;29;20032;-89
2021/05/26 05:38:56;;;;;;;9.07;4.80;;;19.10;93.90;;;;;;4918970;29;20024;-90
2021/05/26 05:41:22;;;;;;;5.38;4.10;;;19.10;93.90;;;;;;4917638;29;20032;-89
2021/05/26 05:43:48;;;;;;;5.55;3.60;;;19.20;93.60;;;;;;4918687;29;20082;-89
2021/05/26 05:46:13;;;;;;;4.45;3.60;;;19.20;93.10;;;;;;4917819;29;20036;-90
2021/05/26 05:48:39;;;;;;;4.65;3.28;;;19.20;93.10;;;;;;4917684;29;20032;-83
2021/05/26 05:51:05;;;;;;;3.35;3.03;;;19.30;93.00;;;;;;4935238;29;20118;-88
2021/05/26 05:53:30;;;;;;;3.85;3.55;;;19.40;92.90;;;;;;4937578;29;20419;-86
2021/05/26 05:55:58;;;;;;;4.57;3.38;;;19.40;92.30;;;;;;4937270;29;20505;-90
2021/05/26 05:58:25;;;;;;;5.30;3.17;;;19.50;92.10;;;;;;4937288;29;20029;-88
2021/05/26 06:00:51;;;;;;;3.20;2.90;;;19.50;91.80;;;;;;4920410;29;20028;-84
2021/05/26 06:03:16;;;;;;;4.47;3.40;;;19.60;91.80;;;;;;4936265;29;20038;-88
2021/05/26 06:05:42;;;;;;;6.18;3.50;;;19.60;91.20;;;;;;4920430;29;20024;-87
2021/05/26 06:08:15;;;;;;;4.28;3.58;;;19.60;91.50;;;;;;4919497;29;20094;-73
2021/05/26 06:10:41;;;;;;;3.58;3.08;;;19.70;91.50;;;;;;4942372;29;20023;-86
2021/05/26 06:13:12;;;;;;;3.80;2.78;;;19.70;91.10;;;;;;4938925;29;20445;-87
2021/05/26 06:15:38;;;;;;;3.53;2.72;;;19.80;89.00;;;;;;4955290;29;20034;-85
2021/05/26 06:18:13;;;;;;;4.63;3.30;;;19.80;90.40;;;;;;4920378;29;20027;-87
2021/05/26 06:20:50;;;;;;;3.60;3.30;;;19.80;90.50;;;;;;4935790;29;20035;-88
2021/05/26 06:23:20;;;;;;;5.22;3.75;;;19.90;90.60;;;;;;4935763;29;20019;-88
2021/05/26 06:25:48;;;;;;;5.30;4.70;;;20.00;90.80;;;;;;4936245;29;20458;-87
2021/05/26 06:28:19;;;;;;;8.32;5.20;;;20.00;90.90;;;;;;4935531;29;20513;-90
2021/05/26 06:30:52;;;;;;;7.82;5.93;;;20.10;91.00;;;;;;4936748;29;20032;-86
2021/05/26 06:33:20;;;;;;;10.38;6.07;;;20.10;91.10;;;;;;4936124;29;20115;-89
2021/05/26 06:35:45;;;;;;;7.70;6.00;;;20.20;91.10;;;;;;4935826;29;20028;-86
2021/05/26 06:38:18;;;;;;;6.38;5.70;;;20.30;91.10;;;;;;4935959;29;20024;-87
2021/05/26 06:40:46;;;;;;;7.13;5.18;;;20.40;91.00;;;;;;4936730;29;20110;-85
2021/05/26 06:43:15;;;;;;;6.93;5.28;;;20.40;91.00;;;;;;4936682;29;20106;-88
2021/05/26 06:45:42;;;;;;;7.13;4.60;;;20.50;91.00;;;;;;4935837;29;20079;-88
2021/05/26 06:48:11;;;;;;;4.90;4.50;;;20.50;91.00;;;;;;4935596;29;20083;-89
2021/05/26 06:50:36;;;;;;;6.05;4.55;;;20.60;91.00;;;;;;4936469;29;20023;-82
2021/05/26 06:53:02;;;;;;;6.13;4.25;;;20.60;91.00;;;;;;4935266;29;20032;-78
2021/05/26 06:55:36;;;;;;;4.65;4.07;;;20.60;91.00;;;;;;4939086;29;20063;-81
2021/05/26 06:58:13;;;;;;;6.22;4.30;;;20.60;90.90;;;;;;4923130;29;20432;-81
2021/05/26 07:00:39;;;;;;;5.97;4.40;;;20.60;91.00;;;;;;4939053;29;20449;-79
2021/05/26 07:03:05;;;;;;;202.40;145.38;;;20.70;91.00;;;;;;4938686;29;20059;-80
2021/05/26 07:05:40;;;;;;;;;;;;;;;;;;;;;
2021/05/26 07:08:14;;;;;;;10.13;7.45;;;20.80;90.80;;;;;;4944305;29;20036;-82
2021/05/26 07:10:42;;;;;;;5.30;4.80;;;20.90;90.80;;;;;;4937094;29;20464;-80
2021/05/26 07:13:08;;;;;;;6.05;4.38;;;20.90;90.80;;;;;;4954027;29;20130;-81
2021/05/26 07:15:34;;;;;;;4.55;4.13;;;20.90;90.70;;;;;;4941819;29;20553;-81
2021/05/26 07:18:08;;;;;;;5.95;4.55;;;20.90;90.70;;;;;;4941899;29;20386;-84
2021/05/26 07:20:48;;;;;;;5.30;4.28;;;20.90;90.40;;;;;;4941427;29;20481;-81
2021/05/26 07:23:45;;;;;;;;;;;;;;;;;;;;;
2021/05/26 07:26:14;;;;;;;48.55;22.73;;;21.10;90.90;;;;;;4958922;29;20034;-83
2021/05/26 07:28:45;;;;;;;28.67;18.23;;;21.10;90.80;;;;;;4958875;29;20040;-80
2021/05/26 07:31:10;;;;;;;11.90;9.32;;;21.20;90.90;;;;;;4957874;29;20103;-78
2021/05/26 07:33:38;;;;;;;7.72;6.55;;;21.30;90.60;;;;;;4925265;29;20043;-78
2021/05/26 07:36:15;;;;;;;6.55;5.50;;;21.40;90.40;;;;;;4958048;29;20034;-79
2021/05/26 07:38:45;;;;;;;6.05;5.43;;;21.40;90.40;;;;;;4958111;29;20027;-78
2021/05/26 07:41:14;;;;;;;6.38;5.78;;;21.40;90.30;;;;;;4958160;29;20469;-77
2021/05/26 07:43:42;;;;;;;5.80;5.20;;;21.40;90.40;;;;;;4958027;29;20031;-78
2021/05/26 07:46:18;;;;;;;5.35;4.93;;;21.50;90.50;;;;;;4957285;29;20822;-80
2021/05/26 07:48:51;;;;;;;6.28;5.75;;;21.50;90.50;;;;;;4957915;29;20525;-80
2021/05/26 07:51:27;;;;;;;6.93;5.70;;;21.50;90.40;;;;;;4933405;29;20035;-83
2021/05/26 07:53:56;;;;;;;9.73;6.40;;;21.60;90.50;;;;;;4957894;29;20054;-77
2021/05/26 07:56:27;;;;;;;7.03;6.32;;;21.70;90.20;;;;;;4958145;29;20058;-83
2021/05/26 07:58:58;;;;;;;10.07;8.93;;;21.70;90.40;;;;;;4958097;29;20031;-81
2021/05/26 08:01:49;;;;;;;7.80;7.10;;;21.80;90.20;;;;;;4940414;29;20033;-77
2021/05/26 08:04:25;;;;;;;10.43;9.25;;;21.90;90.00;;;;;;4937947;29;20091;-79
2021/05/26 08:06:51;;;;;;;7.65;6.38;;;21.90;90.00;;;;;;4937665;29;20023;-77
2021/05/26 08:09:16;;;;;;;6.13;5.55;;;21.90;90.10;;;;;;4938073;29;20027;-77
2021/05/26 08:11:42;;;;;;;5.55;5.05;;;22.00;89.70;;;;;;4936881;29;20031;-88
2021/05/26 08:14:08;;;;;;;5.40;4.90;;;21.90;89.80;;;;;;4922195;29;20119;-81
2021/05/26 08:16:34;;;;;;;5.65;5.15;;;21.90;89.90;;;;;;4937645;29;20035;-80
2021/05/26 08:18:59;;;;;;;5.78;5.13;;;21.90;89.80;;;;;;4923181;29;20536;-79
2021/05/26 08:21:29;;;;;;;7.13;5.13;;;21.90;89.30;;;;;;4938573;29;20102;-89
2021/05/26 08:23:54;;;;;;;6.88;5.47;;;22.00;89.70;;;;;;4921386;29;20100;-78
2021/05/26 08:26:25;;;;;;;8.02;5.40;;;22.20;89.40;;;;;;4939085;29;20031;-84
2021/05/26 08:28:54;;;;;;;8.85;5.90;;;22.30;88.40;;;;;;4921394;29;20035;-77
2021/05/26 08:31:21;;;;;;;6.05;5.35;;;22.50;88.20;;;;;;4938677;29;20099;-78
2021/05/26 08:33:47;;;;;;;5.43;5.03;;;22.60;88.00;;;;;;4937663;29;20032;-76
2021/05/26 08:36:13;;;;;;;6.25;5.10;;;22.70;87.70;;;;;;4938501;29;20034;-77
2021/05/26 08:38:48;;;;;;;7.60;5.47;;;22.70;87.90;;;;;;4938732;29;20027;-83
2021/05/26 08:41:22;;;;;;;8.52;5.43;;;22.70;88.40;;;;;;4938893;29;20083;-76
2021/05/26 08:43:50;;;;;;;6.72;4.68;;;22.90;87.90;;;;;;4936972;29;20055;-75
2021/05/26 08:46:26;;;;;;;5.60;5.10;;;22.90;88.10;;;;;;4938217;29;20459;-78
2021/05/26 08:49:01;;;;;;;5.03;4.63;;;23.00;88.30;;;;;;4941756;28;20114;-75
2021/05/26 08:51:27;;;;;;;5.88;5.10;;;23.10;87.80;;;;;;4955089;29;20090;-77
2021/05/26 08:53:59;;;;;;;5.13;4.72;;;23.10;86.80;;;;;;4957839;29;20031;-76
2021/05/26 08:56:25;;;;;;;5.60;5.00;;;23.10;86.60;;;;;;4957669;29;20074;-78
2021/05/26 08:58:55;;;;;;;5.00;4.60;;;23.00;86.30;;;;;;4957409;29;20023;-77
2021/05/26 09:01:21;;;;;;;6.20;4.80;;;23.00;86.50;;;;;;4957158;29;20038;-77
2021/05/26 09:03:51;;;;;;;4.93;4.38;;;22.90;86.40;;;;;;4955951;29;20486;-77
2021/05/26 09:06:21;;;;;;;5.03;4.60;;;22.90;87.40;;;;;;4955690;29;20039;-77
2021/05/26 09:08:47;;;;;;;4.90;4.50;;;22.90;86.20;;;;;;4956097;29;20036;-85
2021/05/26 09:11:23;;;;;;;9.20;8.30;;;22.80;85.70;;;;;;4956007;29;20372;-90
2021/05/26 09:13:48;;;;;;;7.97;7.03;;;22.80;85.30;;;;;;4955668;29;20052;-76
2021/05/26 09:16:28;;;;;;;5.43;4.93;;;22.70;85.40;;;;;;4955929;28;20027;-82
2021/05/26 09:18:58;;;;;;;5.03;4.63;;;22.70;85.20;;;;;;4938319;29;20043;-76
2021/05/26 09:22:00;;;;;;;;;;;;;;;;;;;;;
2021/05/26 09:24:28;;;;;;;5.40;4.90;;;22.80;84.80;;;;;;4947762;29;20037;-77
2021/05/26 09:27:00;;;;;;;5.03;4.45;;;22.80;84.90;;;;;;4956564;29;20023;-82
2021/05/26 09:29:35;;;;;;;5.35;4.82;;;22.70;84.70;;;;;;4956517;29;20106;-79
2021/05/26 09:32:20;;;;;;;6.53;4.72;;;22.80;85.40;;;;;;4956511;29;20027;-78
2021/05/26 09:34:53;;;;;;;5.40;4.47;;;22.90;84.70;;;;;;4956370;29;20027;-80
2021/05/26 09:37:20;;;;;;;4.85;4.28;;;23.00;84.40;;;;;;4956531;29;20082;-79
2021/05/26 09:40:02;;;;;;;5.13;4.63;;;23.10;84.40;;;;;;4956269;29;20035;-79
2021/05/26 09:42:38;;;;;;;5.60;4.95;;;23.10;84.60;;;;;;4956450;29;20030;-77
2021/05/26 09:45:23;;;;;;;4.85;4.35;;;23.10;84.20;;;;;;4956454;29;20035;-78
2021/05/26 09:47:58;;;;;;;4.90;4.55;;;23.20;84.70;;;;;;4956089;29;20034;-80
2021/05/26 09:50:36;;;;;;;5.03;4.53;;;23.20;84.60;;;;;;4930127;29;20054;-78
2021/05/26 09:53:06;;;;;;;4.85;4.35;;;23.20;83.90;;;;;;4935718;29;20035;-76
2021/05/26 09:55:32;;;;;;;;;;;23.10;84.30;;;;;;4937199;29;20386;-80
2021/05/26 09:58:09;;;;;;;4.35;3.95;;;23.10;84.00;;;;;;4935575;29;19907;-79
2021/05/26 10:00:36;;;;;;;5.05;4.25;;;23.20;83.60;;;;;;4920083;29;20036;-79
2021/05/26 10:03:04;;;;;;;5.18;4.63;;;23.20;83.50;;;;;;4936165;29;20023;-79
2021/05/26 10:05:37;;;;;;;6.43;4.45;;;23.20;83.90;;;;;;4934861;29;20056;-78
2021/05/26 10:08:12;;;;;;;5.72;4.30;;;23.30;84.20;;;;;;4935997;29;20485;-76
2021/05/26 10:10:44;;;;;;;6.15;5.47;;;23.40;83.70;;;;;;4936391;29;20096;-81
2021/05/26 10:13:18;;;;;;;6.30;5.13;;;23.50;82.90;;;;;;4936361;29;20058;-76
2021/05/26 10:15:44;;;;;;;6.78;6.13;;;23.60;83.10;;;;;;4920955;29;20031;-78
2021/05/26 10:18:10;;;;;;;5.30;4.80;;;23.70;83.30;;;;;;4940218;29;20023;-77
2021/05/26 10:20:52;;;;;;;6.82;6.13;;;23.80;83.20;;;;;;4948943;29;20023;-78
2021/05/26 10:23:22;;;;;;;8.43;5.53;;;23.80;82.90;;;;;;4956102;29;20032;-79
2021/05/26 10:25:53;;;;;;;10.02;8.15;;;23.80;82.60;;;;;;4954605;29;20390;-79
2021/05/26 10:28:27;;;;;;;7.28;6.40;;;23.80;82.40;;;;;;4937772;29;20541;-76
2021/05/26 10:30:56;;;;;;;7.38;5.28;;;23.80;82.00;;;;;;4955742;29;20054;-80
2021/05/26 10:33:42;;;;;;;5.45;4.85;;;23.80;81.10;;;;;;4955952;29;20026;-78
2021/05/26 10:36:18;;;;;;;10.18;6.40;;;23.70;81.30;;;;;;4931808;29;20035;-77
2021/05/26 10:39:01;;;;;;;5.93;5.10;;;23.70;82.10;;;;;;4955967;29;20027;-81
2021/05/26 10:41:51;;;;;;;11.48;8.73;;;23.70;80.90;;;;;;4938384;29;20083;-79
2021/05/26 10:44:20;;;;;;;6.88;6.15;;;23.70;80.00;;;;;;4947365;29;20515;-83
2021/05/26 10:46:49;;;;;;;7.30;5.72;;;23.70;79.80;;;;;;4954535;29;20034;-79
2021/05/26 10:49:20;;;;;;;6.53;5.65;;;23.60;79.60;;;;;;4955375;29;20038;-79
2021/05/26 10:51:51;;;;;;;5.72;5.00;;;23.70;79.00;;;;;;4955682;29;20086;-78
2021/05/26 10:54:39;;;;;;;5.55;4.45;;;23.80;79.50;;;;;;4951001;29;20034;-76
2021/05/26 10:57:08;;;;;;;7.72;4.88;;;23.80;80.10;;;;;;4954508;29;20058;-75
2021/05/26 10:59:37;;;;;;;4.60;4.20;;;23.80;79.00;;;;;;4954419;29;20110;-78
2021/05/26 11:02:10;;;;;;;5.75;4.30;;;23.90;78.90;;;;;;4955256;29;20035;-77
2021/05/26 11:04:49;;;;;;;5.20;4.70;;;23.90;79.30;;;;;;4955731;29;20462;-76
2021/05/26 11:07:18;;;;;;;5.90;5.03;;;24.00;79.20;;;;;;4955305;29;20079;-76
2021/05/26 11:10:05;;;;;;;4.85;4.45;;;24.10;78.10;;;;;;4954748;29;20038;-80
2021/05/26 11:12:58;;;;;;;5.22;3.95;;;24.10;78.20;;;;;;4934704;29;20112;-76
2021/05/26 11:15:45;;;;;;;4.35;3.90;;;24.10;77.80;;;;;;4934622;29;20088;-78
2021/05/26 11:18:29;;;;;;;4.25;3.85;;;24.10;78.90;;;;;;4935653;29;20032;-79
2021/05/26 11:20:57;;;;;;;6.80;4.80;;;24.20;79.10;;;;;;4935905;29;20028;-78
2021/05/26 11:23:23;;;;;;;4.47;4.07;;;24.40;78.00;;;;;;4934383;29;20055;-76
2021/05/26 11:26:03;;;;;;;4.45;4.05;;;24.50;75.40;;;;;;4934740;29;20112;-76
2021/05/26 11:28:31;;;;;;;4.55;3.35;;;24.60;74.50;;;;;;4935298;29;20103;-79
2021/05/26 11:31:19;;;;;;;3.67;3.38;;;24.70;73.40;;;;;;4935781;29;20059;-76
2021/05/26 11:33:58;;;;;;;4.63;3.53;;;24.70;73.50;;;;;;4934174;29;20148;-77
2021/05/26 11:36:45;;;;;;;4.53;3.38;;;24.80;72.30;;;;;;4934180;29;20047;-76
2021/05/26 11:39:28;;;;;;;4.47;3.28;;;24.80;70.00;;;;;;4936167;29;20094;-78
2021/05/26 11:42:21;;;;;;;4.65;3.22;;;24.90;71.90;;;;;;4938994;29;20501;-77
2021/05/26 11:45:04;;;;;;;2.90;2.70;;;24.90;71.50;;;;;;4938583;29;20050;-77
2021/05/26 11:47:50;;;;;;;3.70;3.00;;;25.00;71.60;;;;;;4937731;29;20072;-81
2021/05/26 11:50:25;;;;;;;;;;;;;;;;;;;;;
2021/05/26 11:53:00;;;;;;;4.22;2.80;;;25.40;71.50;;;;;;4939056;29;20030;-78
2021/05/26 11:55:26;;;;;;;3.78;3.47;;;25.60;72.60;;;;;;4938425;29;20070;-81
2021/05/26 11:57:53;;;;;;;2.85;2.60;;;26.20;72.80;;;;;;4937628;29;20051;-78
2021/05/26 12:00:28;;;;;;;2.50;2.30;;;27.10;68.70;;;;;;4936640;29;20454;-77
2021/05/26 12:03:01;;;;;;;3.22;2.60;;;28.00;65.60;;;;;;4938093;29;20035;-82
2021/05/26 12:05:41;;;;;;;2.85;2.30;;;29.00;62.30;;;;;;4938083;29;20027;-76
2021/05/26 12:08:27;;;;;;;5.95;2.25;;;29.70;59.50;;;;;;4938430;29;20024;-81
2021/05/26 12:11:00;;;;;;;4.00;2.47;;;30.20;58.30;;;;;;4939072;29;20096;-80
2021/05/26 12:13:34;;;;;;;2.35;2.20;;;30.30;56.90;;;;;;4946149;29;20402;-80
2021/05/26 12:16:15;;;;;;;2.72;2.05;;;30.10;55.10;;;;;;4939761;29;20032;-84
2021/05/26 12:19:01;;;;;;;4.03;2.28;;;29.80;54.60;;;;;;4926881;29;20394;-78
2021/05/26 12:21:31;;;;;;;4.15;2.35;;;29.60;53.40;;;;;;4920006;29;20020;-77
2021/05/26 12:24:01;;;;;;;1.90;1.80;;;29.30;53.00;;;;;;4918654;29;20030;-77
2021/05/26 12:26:36;;;;;;;1.90;1.80;;;29.20;53.70;;;;;;4918687;29;20087;-79
2021/05/26 12:29:09;;;;;;;3.90;1.90;;;29.40;55.00;;;;;;4920528;29;20032;-83
2021/05/26 12:31:38;;;;;;;1.85;1.73;;;29.70;52.80;;;;;;4919653;29;20050;-79
2021/05/26 12:34:33;;;;;;;4.75;2.00;;;30.00;51.70;;;;;;4921057;29;20104;-80
2021/05/26 12:37:04;;;;;;;2.20;2.00;;;29.90;51.00;;;;;;4913893;29;20095;-79
2021/05/26 12:39:40;;;;;;;2.63;1.80;;;29.80;51.30;;;;;;4919401;29;20024;-77
2021/05/26 12:42:13;;;;;;;3.17;1.85;;;29.70;51.50;;;;;;4917484;29;20111;-79
2021/05/26 12:44:39;;;;;;;3.35;1.90;;;29.70;51.10;;;;;;4919657;29;20031;-79
2021/05/26 12:47:14;;;;;;;3.58;1.90;;;29.50;51.20;;;;;;4919725;29;20038;-81
2021/05/26 12:49:46;;;;;;;3.67;2.25;;;29.20;51.50;;;;;;4917955;29;20434;-81
2021/05/26 12:52:29;;;;;;;2.28;2.08;;;28.90;51.60;;;;;;4917798;29;20119;-77
2021/05/26 12:54:55;;;;;;;3.53;1.98;;;28.50;52.60;;;;;;4919136;29;20036;-78
2021/05/26 12:57:30;;;;;;;2.45;2.25;;;28.10;53.20;;;;;;4919020;29;20028;-78
2021/05/26 13:00:01;;;;;;;2.25;2.05;;;27.80;53.80;;;;;;4917898;29;20024;-79
2021/05/26 13:02:40;;;;;;;2.17;2.08;;;27.40;54.90;;;;;;4919610;29;20026;-79
2021/05/26 13:05:31;;;;;;;2.20;1.98;;;27.20;56.10;;;;;;4902186;29;20486;-77
2021/05/26 13:08:23;;;;;;;3.28;2.40;;;26.90;56.30;;;;;;4913760;29;20048;-78